Time;durP1;ratioP1;P1;durP2;ratioP2;P2;SDS_P1;SDS_P2;PMS_P1;PMS_P2;Temp;Humidity;BMP_temperature;BMP_pressure;BME280_temperature;BME280_humidity;BME280_pressure;Samples;Min_cycle;Max_cycle;Signal;HPM_P1;HPM_P2
2023/01/21 00:00:35;;;;;;;;;;;19.70;50.50;;;;;;1589555;73;786;-66
2023/01/21 00:02:37;;;;;;;;;;;19.80;50.40;;;;;;1588325;73;1169;-66
2023/01/21 00:04:39;;;;;;;;;;;19.80;50.40;;;;;;1586751;73;700;-66
2023/01/21 00:06:41;;;;;;;;;;;19.80;50.40;;;;;;1588660;73;726;-71
2023/01/21 00:08:43;;;;;;;;;;;19.90;50.50;;;;;;1569451;73;764;-66
2023/01/21 00:10:45;;;;;;;;;;;19.80;50.20;;;;;;1567874;73;774;-66
2023/01/21 00:12:46;;;;;;;;;;;19.90;50.20;;;;;;1557431;71;231346;-62
2023/01/21 00:14:48;;;;;;;;;;;19.80;50.60;;;;;;1507863;76;570;-60
2023/01/21 00:16:50;;;;;;;;;;;19.80;50.90;;;;;;1478313;78;1950;-62
2023/01/21 00:18:52;;;;;;;;;;;19.70;51.00;;;;;;1491697;77;1185;-60
2023/01/21 00:20:54;;;;;;;;;;;19.70;51.10;;;;;;1483775;78;850;-61
2023/01/21 00:22:56;;;;;;;;;;;19.80;51.20;;;;;;1487171;78;735;-61
2023/01/21 00:24:57;;;;;;;;;;;19.70;51.30;;;;;;1499776;76;685;-60
2023/01/21 00:26:59;;;;;;;;;;;19.60;51.30;;;;;;1480604;78;793;-61
2023/01/21 00:29:01;;;;;;;;;;;19.60;51.60;;;;;;1474959;78;1127;-61
2023/01/21 00:31:04;;;;;;;;;;;19.60;51.50;;;;;;1485474;78;677;-61
2023/01/21 00:33:06;;;;;;;;;;;19.50;51.90;;;;;;1481348;78;776;-58
2023/01/21 00:35:08;;;;;;;;;;;19.60;52.20;;;;;;1478945;78;1554;-58
2023/01/21 00:37:09;;;;;;;;;;;19.60;52.30;;;;;;1487185;78;1942;-58
2023/01/21 00:39:11;;;;;;;;;;;19.60;52.30;;;;;;1486436;77;1140;-58
2023/01/21 00:41:13;;;;;;;;;;;19.70;52.50;;;;;;1485934;78;723;-59
2023/01/21 00:43:15;;;;;;;;;;;19.70;52.50;;;;;;1486836;78;750;-59
2023/01/21 00:45:17;;;;;;;;;;;19.60;52.60;;;;;;1490344;78;795;-57
2023/01/21 00:47:19;;;;;;;;;;;19.70;52.80;;;;;;1480811;78;790;-58
2023/01/21 00:49:21;;;;;;;;;;;19.70;52.90;;;;;;1478996;78;1148;-58
2023/01/21 00:51:23;;;;;;;;;;;19.70;52.80;;;;;;1489222;78;709;-58
2023/01/21 00:53:24;;;;;;;;;;;19.70;52.70;;;;;;1481796;78;748;-58
2023/01/21 00:55:26;;;;;;;;;;;19.70;52.60;;;;;;1482643;78;724;-57
2023/01/21 00:57:28;;;;;;;;;;;19.70;52.60;;;;;;1481023;78;1942;-59
2023/01/21 00:59:30;;;;;;;;;;;19.70;52.80;;;;;;1479881;77;1213;-59
2023/01/21 01:01:36;;;;;;;;;;;19.80;52.80;;;;;;1483468;78;786;-58
2023/01/21 01:03:36;;;;;;;;;;;19.70;52.80;;;;;;1484320;78;1599;-58
2023/01/21 01:05:38;;;;;;;;;;;19.70;52.90;;;;;;1481235;78;712;-58
2023/01/21 01:07:42;;;;;;;;;;;19.80;52.80;;;;;;1474086;78;738;-59
2023/01/21 01:09:43;;;;;;;;;;;19.80;52.80;;;;;;1490269;78;1684;-58
2023/01/21 01:11:45;;;;;;;;;;;19.70;53.00;;;;;;1493497;78;766;-59
2023/01/21 01:13:47;;;;;;;;;;;19.80;52.70;;;;;;1490789;78;855;-59
2023/01/21 01:15:51;;;;;;;;;;;19.80;52.80;;;;;;1485629;78;790;-59
2023/01/21 01:17:52;;;;;;;;;;;19.70;52.80;;;;;;1495952;78;1945;-60
2023/01/21 01:19:54;;;;;;;;;;;19.80;52.70;;;;;;1490708;78;1151;-60
2023/01/21 01:21:56;;;;;;;;;;;19.80;52.60;;;;;;1489332;78;753;-57
2023/01/21 01:24:01;;;;;;;;;;;19.90;52.70;;;;;;1481566;78;764;-58
2023/01/21 01:26:03;;;;;;;;;;;19.80;52.60;;;;;;1483281;78;1670;-59
2023/01/21 01:28:05;;;;;;;;;;;19.80;52.60;;;;;;1477982;78;748;-59
2023/01/21 01:30:07;;;;;;;;;;;19.80;52.60;;;;;;1480858;78;1155;-58
2023/01/21 01:32:09;;;;;;;;;;;19.80;52.60;;;;;;1482170;78;1570;-57
2023/01/21 01:34:11;;;;;;;;;;;19.80;52.70;;;;;;1481993;78;825;-58
2023/01/21 01:36:14;;;;;;;;;;;19.80;52.70;;;;;;1500527;78;731;-59
2023/01/21 01:38:16;;;;;;;;;;;19.80;52.70;;;;;;1502047;78;1942;-59
2023/01/21 01:40:18;;;;;;;;;;;19.80;52.60;;;;;;1492196;77;1261;-58
2023/01/21 01:42:19;;;;;;;;;;;19.80;52.60;;;;;;1482378;78;566;-57
2023/01/21 01:44:40;;;;;;;;;;;19.90;52.80;;;;;;1485712;78;726;-59
2023/01/21 01:46:41;;;;;;;;;;;19.80;52.80;;;;;;1486515;78;807;-58
2023/01/21 01:48:44;;;;;;;;;;;19.90;52.80;;;;;;1485898;78;792;-58
2023/01/21 01:50:46;;;;;;;;;;;19.80;52.90;;;;;;1488824;78;1121;-59
2023/01/21 01:52:47;;;;;;;;;;;19.90;52.90;;;;;;1501701;78;731;-58
2023/01/21 01:54:51;;;;;;;;;;;19.80;52.80;;;;;;1489506;78;751;-60
2023/01/21 01:56:53;;;;;;;;;;;19.80;52.80;;;;;;1491189;78;709;-59
2023/01/21 01:58:55;;;;;;;;;;;19.80;52.80;;;;;;1489485;78;1967;-59
2023/01/21 02:00:57;;;;;;;;;;;19.90;52.90;;;;;;1472828;78;683;-59
2023/01/21 02:05:07;;;;;;;;;;;19.90;52.80;;;;;;1434611;78;1188;-58
2023/01/21 02:07:08;;;;;;;;;;;19.90;52.80;;;;;;1505196;78;721;-59
2023/01/21 02:09:11;;;;;;;;;;;19.80;52.80;;;;;;1485590;77;1195;-59
2023/01/21 02:11:13;;;;;;;;;;;19.80;53.00;;;;;;1499955;78;734;-59
2023/01/21 02:13:15;;;;;;;;;;;19.80;53.20;;;;;;1489623;78;723;-60
2023/01/21 02:15:17;;;;;;;;;;;19.90;53.10;;;;;;1487303;78;763;-58
2023/01/21 02:17:37;;;;;;;;;;;19.90;53.10;;;;;;1486809;78;1924;-59
2023/01/21 02:19:57;;;;;;;;;;;19.80;53.00;;;;;;1491643;78;1159;-58
2023/01/21 02:22:06;;;;;;;;;;;19.90;53.00;;;;;;1498090;78;715;-60
2023/01/21 02:24:13;;;;;;;;;;;20.00;52.80;;;;;;1488619;78;749;-59
2023/01/21 02:26:22;;;;;;;;;;;20.00;52.70;;;;;;1482979;78;694;-58
2023/01/21 02:28:41;;;;;;;;;;;20.00;52.60;;;;;;1496809;78;1626;-59
2023/01/21 02:31:01;;;;;;;;;;;20.00;52.60;;;;;;1492123;78;1406;-59
2023/01/21 02:33:13;;;;;;;;;;;20.00;52.60;;;;;;1478360;78;763;-59
2023/01/21 02:35:20;;;;;;;;;;;20.00;52.60;;;;;;1503222;78;737;-62
2023/01/21 02:37:35;;;;;;;;;;;20.00;52.60;;;;;;1500111;78;1935;-60
2023/01/21 02:39:55;;;;;;;;;;;20.00;52.60;;;;;;1480600;78;1145;-68
2023/01/21 02:41:59;;;;;;;;;;;20.00;52.60;;;;;;1487869;78;1506;-59
2023/01/21 02:44:03;;;;;;;;;;;20.00;52.50;;;;;;1492820;78;2163;-59
2023/01/21 02:46:09;;;;;;;;;;;20.00;52.50;;;;;;1492180;78;2060;-60
2023/01/21 02:48:14;;;;;;;;;;;20.00;52.60;;;;;;1476871;78;856;-61
2023/01/21 02:50:24;;;;;;;;;;;20.00;52.70;;;;;;1457217;79;1144;-62
2023/01/21 02:52:26;;;;;;;;;;;19.90;52.80;;;;;;1458308;80;1843;-61
2023/01/21 02:54:41;;;;;;;;;;;20.00;52.80;;;;;;1458196;80;824;-60
2023/01/21 02:56:43;;;;;;;;;;;20.00;52.80;;;;;;1462847;80;1588;-61
2023/01/21 02:58:47;;;;;;;;;;;19.90;52.80;;;;;;1456850;80;1948;-60
2023/01/21 03:00:53;;;;;;;;;;;19.90;52.80;;;;;;1457305;79;822;-60
2023/01/21 03:02:56;;;;;;;;;;;20.00;52.60;;;;;;1479926;78;1881;-60
2023/01/21 03:05:13;;;;;;;;;;;20.00;52.50;;;;;;1439518;80;1560;-60
2023/01/21 03:07:16;;;;;;;;;;;20.00;52.60;;;;;;1468085;80;681;-62
2023/01/21 03:09:25;;;;;;;;;;;20.10;52.70;;;;;;1464055;80;1177;-62
2023/01/21 03:11:27;;;;;;;;;;;20.10;52.40;;;;;;1484902;78;737;-59
2023/01/21 03:18:16;;;;;;;;;;;20.20;52.30;;;;;;1499310;78;1895;-59
2023/01/21 03:20:28;;;;;;;;;;;20.20;52.50;;;;;;1480846;78;1189;-59
2023/01/21 03:22:31;;;;;;;;;;;20.10;52.60;;;;;;1478137;78;735;-62
2023/01/21 03:24:33;;;;;;;;;;;20.10;52.80;;;;;;1460790;80;1328;-60
2023/01/21 03:26:36;;;;;;;;;;;20.10;52.90;;;;;;1483196;78;695;-60
2023/01/21 03:28:39;;;;;;;;;;;20.10;52.90;;;;;;1486889;78;716;-63
2023/01/21 03:30:42;;;;;;;;;;;20.10;53.10;;;;;;1452366;79;1055;-61
2023/01/21 03:32:45;;;;;;;;;;;20.10;53.10;;;;;;1444024;79;720;-61
2023/01/21 03:34:47;;;;;;;;;;;20.10;53.00;;;;;;1456694;79;720;-60
2023/01/21 03:37:06;;;;;;;;;;;20.10;53.10;;;;;;1457796;80;768;-60
2023/01/21 03:39:12;;;;;;;;;;;20.10;53.00;;;;;;1460223;80;1936;-60
2023/01/21 03:41:16;;;;;;;;;;;20.10;53.00;;;;;;1501744;78;1780;-62
2023/01/21 03:43:18;;;;;;;;;;;20.10;53.00;;;;;;1498497;78;938;-60
2023/01/21 03:45:21;;;;;;;;;;;20.10;53.00;;;;;;1478792;78;675;-60
2023/01/21 03:47:30;;;;;;;;;;;20.10;53.00;;;;;;1464646;78;784;-61
2023/01/21 03:49:33;;;;;;;;;;;20.10;53.00;;;;;;1470048;79;1660;-60
2023/01/21 03:51:39;;;;;;;;;;;20.10;53.00;;;;;;1468796;80;1562;-60
2023/01/21 03:53:40;;;;;;;;;;;20.20;53.00;;;;;;1455232;80;910;-62
2023/01/21 03:55:42;;;;;;;;;;;20.20;52.80;;;;;;1466479;80;801;-60
2023/01/21 03:57:44;;;;;;;;;;;20.20;52.80;;;;;;1475807;80;1948;-61
2023/01/21 03:59:46;;;;;;;;;;;20.20;52.80;;;;;;1472783;80;1157;-62
2023/01/21 04:01:48;;;;;;;;;;;20.20;52.80;;;;;;1455198;80;733;-60
2023/01/21 04:03:50;;;;;;;;;;;20.20;52.80;;;;;;1456649;80;749;-60
2023/01/21 04:05:52;;;;;;;;;;;20.30;52.80;;;;;;1478514;78;1289;-61
2023/01/21 04:07:53;;;;;;;;;;;20.20;52.60;;;;;;1502631;78;694;-60
2023/01/21 04:09:55;;;;;;;;;;;20.20;52.60;;;;;;1473318;79;1170;-61
2023/01/21 04:11:59;;;;;;;;;;;20.30;52.70;;;;;;1479994;79;786;-60
2023/01/21 04:14:01;;;;;;;;;;;20.30;52.60;;;;;;1459819;79;794;-61
2023/01/21 04:16:02;;;;;;;;;;;20.30;52.70;;;;;;1484111;79;787;-61
2023/01/21 04:18:04;;;;;;;;;;;20.30;52.60;;;;;;1475819;79;1943;-61
2023/01/21 04:20:07;;;;;;;;;;;20.40;52.60;;;;;;1477328;79;1611;-60
2023/01/21 04:22:09;;;;;;;;;;;20.30;52.60;;;;;;1491142;79;727;-61
2023/01/21 04:24:10;;;;;;;;;;;20.40;52.60;;;;;;1468762;79;589;-60
2023/01/21 04:26:12;;;;;;;;;;;20.40;52.50;;;;;;1493771;79;812;-59
2023/01/21 04:28:14;;;;;;;;;;;20.40;52.50;;;;;;1472996;79;747;-60
2023/01/21 04:30:17;;;;;;;;;;;20.40;52.40;;;;;;1463740;79;1120;-62
2023/01/21 04:32:18;;;;;;;;;;;20.40;52.50;;;;;;1487391;78;751;-59
2023/01/21 04:34:20;;;;;;;;;;;20.40;52.40;;;;;;1478600;78;1529;-61
2023/01/21 04:36:22;;;;;;;;;;;20.40;52.40;;;;;;1481696;78;731;-60
2023/01/21 04:38:24;;;;;;;;;;;20.40;52.40;;;;;;1478664;78;1941;-60
2023/01/21 04:40:26;;;;;;;;;;;20.40;52.90;;;;;;1497634;78;1133;-60
2023/01/21 04:42:28;;;;;;;;;;;20.40;52.60;;;;;;1463173;80;799;-60
2023/01/21 04:44:30;;;;;;;;;;;20.40;52.50;;;;;;1513099;78;721;-61
2023/01/21 04:46:31;;;;;;;;;;;20.50;52.50;;;;;;1456457;80;759;-61
2023/01/21 04:48:33;;;;;;;;;;;20.50;52.60;;;;;;1456850;80;1536;-60
2023/01/21 04:50:35;;;;;;;;;;;20.50;52.60;;;;;;1490855;78;1093;-61
2023/01/21 04:52:37;;;;;;;;;;;20.50;52.40;;;;;;1498594;78;726;-60
2023/01/21 04:54:39;;;;;;;;;;;20.50;52.40;;;;;;1474084;80;719;-61
2023/01/21 04:56:41;;;;;;;;;;;20.50;52.40;;;;;;1469251;80;748;-61
2023/01/21 04:58:43;;;;;;;;;;;20.50;52.40;;;;;;1499108;78;1943;-61
2023/01/21 05:00:44;;;;;;;;;;;20.50;52.50;;;;;;1487660;77;1074;-61
2023/01/21 05:02:46;;;;;;;;;;;20.50;52.50;;;;;;1492688;77;1533;-65
2023/01/21 05:04:48;;;;;;;;;;;20.50;52.60;;;;;;1487986;78;726;-61
2023/01/21 05:06:50;;;;;;;;;;;20.50;52.60;;;;;;1481403;78;796;-61
2023/01/21 05:08:52;;;;;;;;;;;20.50;52.60;;;;;;1499439;78;1154;-60
2023/01/21 05:10:54;;;;;;;;;;;20.50;52.70;;;;;;1485660;78;761;-61
2023/01/21 05:12:56;;;;;;;;;;;20.50;52.60;;;;;;1490322;78;801;-61
2023/01/21 05:14:58;;;;;;;;;;;20.50;52.50;;;;;;1497737;78;773;-61
2023/01/21 05:16:59;;;;;;;;;;;20.50;52.50;;;;;;1486734;78;1584;-61
2023/01/21 05:19:01;;;;;;;;;;;20.50;52.50;;;;;;1482188;78;1940;-62
2023/01/21 05:21:03;;;;;;;;;;;20.60;52.40;;;;;;1481946;78;763;-61
2023/01/21 05:23:05;;;;;;;;;;;20.50;52.40;;;;;;1493292;78;828;-61
2023/01/21 05:25:07;;;;;;;;;;;20.50;52.50;;;;;;1486424;78;741;-61
2023/01/21 05:27:09;;;;;;;;;;;20.60;53.00;;;;;;1502844;78;795;-61
2023/01/21 05:29:11;;;;;;;;;;;20.50;52.80;;;;;;1485499;78;1161;-60
2023/01/21 05:31:13;;;;;;;;;;;20.60;52.70;;;;;;1503840;78;1580;-61
2023/01/21 05:33:15;;;;;;;;;;;20.60;52.50;;;;;;1499320;78;766;-60
2023/01/21 05:35:19;;;;;;;;;;;20.60;52.60;;;;;;1496391;78;767;-62
2023/01/21 05:37:20;;;;;;;;;;;20.60;52.60;;;;;;1472395;78;713;-61
2023/01/21 05:39:22;;;;;;;;;;;20.60;52.60;;;;;;1470470;78;1940;-61
2023/01/21 05:41:24;;;;;;;;;;;20.60;52.70;;;;;;1508613;78;807;-61
2023/01/21 05:43:26;;;;;;;;;;;20.60;52.60;;;;;;1492592;78;692;-61
2023/01/21 05:45:28;;;;;;;;;;;20.60;52.60;;;;;;1500690;78;1558;-61
2023/01/21 05:47:30;;;;;;;;;;;20.60;52.60;;;;;;1503211;78;759;-62
2023/01/21 05:49:32;;;;;;;;;;;20.60;52.40;;;;;;1508697;77;1134;-61
2023/01/21 05:51:33;;;;;;;;;;;20.60;52.50;;;;;;1486277;78;654;-61
2023/01/21 05:53:35;;;;;;;;;;;20.60;52.50;;;;;;1479130;78;725;-61
2023/01/21 05:55:37;;;;;;;;;;;20.60;52.70;;;;;;1479879;78;722;-62
2023/01/21 05:57:39;;;;;;;;;;;20.60;52.60;;;;;;1493899;78;767;-61
2023/01/21 05:59:41;;;;;;;;;;;20.60;52.60;;;;;;1484558;78;1943;-61
2023/01/21 06:01:43;;;;;;;;;;;20.70;52.60;;;;;;1499322;78;701;-61
2023/01/21 06:03:45;;;;;;;;;;;20.50;52.50;;;;;;1487606;78;796;-61
2023/01/21 06:05:47;;;;;;;;;;;20.70;52.60;;;;;;1502558;78;740;-61
2023/01/21 06:07:50;;;;;;;;;;;20.60;52.40;;;;;;1484912;78;735;-61
2023/01/21 06:09:51;;;;;;;;;;;20.70;52.50;;;;;;1494968;78;1190;-60
2023/01/21 06:11:53;;;;;;;;;;;20.70;52.60;;;;;;1491253;78;718;-61
2023/01/21 06:13:55;;;;;;;;;;;20.70;52.50;;;;;;1544390;73;220351;-69
2023/01/21 06:15:57;;;;;;;;;;;20.70;52.50;;;;;;1595888;74;717;-69
2023/01/21 06:18:00;;;;;;;;;;;20.70;52.50;;;;;;1600278;74;754;-68
2023/01/21 06:20:01;;;;;;;;;;;20.60;52.30;;;;;;1595401;73;1909;-69
2023/01/21 06:22:03;;;;;;;;;;;20.70;52.40;;;;;;1578832;74;694;-67
2023/01/21 06:24:05;;;;;;;;;;;20.70;52.50;;;;;;1576930;74;1195;-71
2023/01/21 06:26:07;;;;;;;;;;;20.70;52.60;;;;;;1572086;74;700;-70
2023/01/21 06:28:12;;;;;;;;;;;20.70;52.30;;;;;;1564589;74;1516;-69
2023/01/21 06:30:14;;;;;;;;;;;20.70;52.20;;;;;;1570256;74;680;-69
2023/01/21 06:32:16;;;;;;;;;;;20.70;52.20;;;;;;1569451;74;708;-72
2023/01/21 06:34:18;;;;;;;;;;;20.70;52.00;;;;;;1559889;74;1130;-70
2023/01/21 06:36:20;;;;;;;;;;;20.70;50.70;;;;;;1567751;74;717;-65
2023/01/21 06:38:22;;;;;;;;;;;20.80;51.20;;;;;;1569448;74;557;-68
2023/01/21 06:40:24;;;;;;;;;;;21.10;50.40;;;;;;1571062;74;1937;-68
2023/01/21 06:42:26;;;;;;;;;;;21.30;49.10;;;;;;1559649;74;699;-66
2023/01/21 06:44:28;;;;;;;;;;;21.40;47.80;;;;;;1563040;74;1067;-68
2023/01/21 06:46:30;;;;;;;;;;;21.30;46.80;;;;;;1567251;74;709;-66
2023/01/21 06:48:31;;;;;;;;;;;21.20;46.10;;;;;;1554342;75;707;-66
2023/01/21 06:50:33;;;;;;;;;;;21.10;45.40;;;;;;1560682;74;713;-66
2023/01/21 06:52:35;;;;;;;;;;;21.10;45.00;;;;;;1567322;74;1122;-66
2023/01/21 06:54:37;;;;;;;;;;;21.00;44.40;;;;;;1570318;74;1416;-65
2023/01/21 06:56:42;;;;;;;;;;;21.00;44.00;;;;;;1573475;74;710;-67
2023/01/21 06:58:43;;;;;;;;;;;20.90;43.50;;;;;;1582400;74;1228;-64
2023/01/21 07:00:44;;;;;;;;;;;20.80;43.10;;;;;;1556412;75;1940;-65
2023/01/21 07:02:46;;;;;;;;;;;20.70;42.60;;;;;;1559680;75;1100;-67
2023/01/21 07:04:50;;;;;;;;;;;20.70;42.10;;;;;;1557382;75;712;-65
2023/01/21 07:06:52;;;;;;;;;;;20.60;41.80;;;;;;1565677;74;867;-66
2023/01/21 07:08:54;;;;;;;;;;;20.50;41.40;;;;;;1570603;74;1436;-68
2023/01/21 07:10:55;;;;;;;;;;;20.50;41.20;;;;;;1586853;74;743;-66
2023/01/21 07:12:57;;;;;;;;;;;20.40;40.60;;;;;;1581491;74;1172;-67
2023/01/21 07:14:59;;;;;;;;;;;20.40;40.50;;;;;;1582660;74;777;-67
2023/01/21 07:17:01;;;;;;;;;;;20.30;40.20;;;;;;1577330;74;635;-68
2023/01/21 07:19:03;;;;;;;;;;;20.20;39.90;;;;;;1581390;74;1915;-68
2023/01/21 07:21:05;;;;;;;;;;;20.20;39.30;;;;;;1582722;74;737;-69
2023/01/21 07:23:07;;;;;;;;;;;20.10;39.10;;;;;;1555206;75;1358;-67
2023/01/21 07:25:09;;;;;;;;;;;20.10;39.00;;;;;;1573579;74;736;-67
2023/01/21 07:27:10;;;;;;;;;;;20.10;38.80;;;;;;1571767;75;726;-67
2023/01/21 07:29:12;;;;;;;;;;;20.00;38.50;;;;;;1577552;74;715;-68
2023/01/21 07:31:14;;;;;;;;;;;20.00;38.20;;;;;;1560354;75;696;-64
2023/01/21 07:33:16;;;;;;;;;;;20.00;38.10;;;;;;1556236;75;1067;-66
2023/01/21 07:35:18;;;;;;;;;;;20.00;37.80;;;;;;1562734;75;705;-66
2023/01/21 07:37:20;;;;;;;;;;;19.90;37.50;;;;;;1582661;74;1516;-66
2023/01/21 07:39:22;;;;;;;;;;;19.90;37.40;;;;;;1582260;74;1923;-67
2023/01/21 07:41:23;;;;;;;;;;;19.80;37.50;;;;;;1582382;74;688;-66
2023/01/21 07:43:27;;;;;;;;;;;19.70;37.00;;;;;;1584919;74;1140;-66
2023/01/21 07:45:28;;;;;;;;;;;19.70;37.20;;;;;;1588219;74;725;-69
2023/01/21 07:47:30;;;;;;;;;;;19.60;36.80;;;;;;1583848;74;725;-67
2023/01/21 07:49:32;;;;;;;;;;;19.60;36.50;;;;;;1586605;74;724;-67
2023/01/21 07:51:34;;;;;;;;;;;19.60;36.30;;;;;;1582757;74;1436;-66
2023/01/21 07:53:36;;;;;;;;;;;19.60;36.00;;;;;;1575836;74;1144;-65
2023/01/21 07:55:38;;;;;;;;;;;19.50;35.80;;;;;;1569484;74;700;-71
2023/01/21 07:57:40;;;;;;;;;;;19.50;35.80;;;;;;1557116;74;633;-68
2023/01/21 07:59:42;;;;;;;;;;;19.40;35.70;;;;;;1557450;74;1931;-68
2023/01/21 08:01:43;;;;;;;;;;;19.30;35.50;;;;;;1576870;74;877;-66
2023/01/21 08:03:45;;;;;;;;;;;19.30;35.60;;;;;;1558240;75;1134;-66
2023/01/21 08:05:47;;;;;;;;;;;19.30;35.30;;;;;;1556644;75;1502;-66
2023/01/21 08:07:49;;;;;;;;;;;19.30;35.20;;;;;;1585680;74;742;-66
2023/01/21 08:09:51;;;;;;;;;;;19.30;35.20;;;;;;1585201;74;775;-65
2023/01/21 08:11:53;;;;;;;;;;;19.20;35.10;;;;;;1582701;74;744;-65
2023/01/21 08:13:55;;;;;;;;;;;19.20;35.10;;;;;;1579627;74;1191;-67
2023/01/21 08:15:57;;;;;;;;;;;19.10;35.10;;;;;;1550613;75;640;-68
2023/01/21 08:17:59;;;;;;;;;;;19.20;35.00;;;;;;1580147;74;750;-68
2023/01/21 08:20:01;;;;;;;;;;;19.10;34.90;;;;;;1564967;74;1946;-66
2023/01/21 08:22:02;;;;;;;;;;;19.10;34.80;;;;;;1569935;74;727;-66
2023/01/21 08:24:05;;;;;;;;;;;19.00;34.90;;;;;;1568526;74;1241;-65
2023/01/21 08:26:07;;;;;;;;;;;19.00;34.70;;;;;;1557926;74;857;-65
2023/01/21 08:28:08;;;;;;;;;;;19.00;34.80;;;;;;1575560;74;929;-66
2023/01/21 08:30:11;;;;;;;;;;;18.90;34.70;;;;;;1550130;75;713;-66
2023/01/21 08:32:12;;;;;;;;;;;18.90;34.80;;;;;;1582707;74;787;-66
2023/01/21 08:34:15;;;;;;;;;;;18.90;34.60;;;;;;1574682;74;1451;-67
2023/01/21 08:36:17;;;;;;;;;;;18.90;34.90;;;;;;1580371;74;679;-65
2023/01/21 08:38:18;;;;;;;;;;;18.80;34.60;;;;;;1578866;74;702;-66
2023/01/21 08:40:22;;;;;;;;;;;18.80;34.40;;;;;;1580425;74;1921;-65
2023/01/21 08:42:24;;;;;;;;;;;18.80;34.40;;;;;;1562815;74;735;-67
2023/01/21 08:44:26;;;;;;;;;;;18.70;34.20;;;;;;1583148;74;1125;-67
2023/01/21 08:46:28;;;;;;;;;;;18.70;34.40;;;;;;1562873;74;820;-66
2023/01/21 08:48:30;;;;;;;;;;;18.70;34.20;;;;;;1541754;75;1612;-66
2023/01/21 08:50:32;;;;;;;;;;;18.70;34.30;;;;;;1559880;75;642;-67
2023/01/21 08:52:35;;;;;;;;;;;18.60;34.30;;;;;;1567067;75;759;-68
2023/01/21 08:54:37;;;;;;;;;;;18.70;34.20;;;;;;1563381;75;1090;-65
2023/01/21 08:56:39;;;;;;;;;;;18.60;34.30;;;;;;1574827;74;760;-70
2023/01/21 08:58:41;;;;;;;;;;;18.60;34.20;;;;;;1577218;74;719;-67
2023/01/21 09:00:43;;;;;;;;;;;18.60;34.10;;;;;;1580148;74;1946;-67
2023/01/21 09:02:45;;;;;;;;;;;18.60;34.00;;;;;;1574595;74;1495;-67
2023/01/21 09:04:49;;;;;;;;;;;18.60;33.90;;;;;;1573692;74;706;-67
2023/01/21 09:06:50;;;;;;;;;;;18.50;34.00;;;;;;1569299;74;1658;-68
2023/01/21 09:08:52;;;;;;;;;;;18.50;34.00;;;;;;1578165;74;821;-69
2023/01/21 09:11:00;;;;;;;;;;;18.50;34.00;;;;;;1581641;74;723;-65
2023/01/21 09:13:05;;;;;;;;;;;18.50;33.90;;;;;;1579963;74;1206;-65
2023/01/21 09:15:07;;;;;;;;;;;18.50;33.90;;;;;;1572024;74;1392;-67
2023/01/21 09:17:09;;;;;;;;;;;18.40;33.60;;;;;;1565968;74;743;-68
2023/01/21 09:19:11;;;;;;;;;;;18.40;33.60;;;;;;1558150;74;802;-64
2023/01/21 09:21:13;;;;;;;;;;;18.40;33.40;;;;;;1580757;74;1945;-66
2023/01/21 09:23:24;;;;;;;;;;;18.30;39.40;;;;;;1582573;74;1122;-65
2023/01/21 09:25:26;;;;;;;;;;;18.30;36.70;;;;;;1567770;74;705;-68
2023/01/21 09:27:28;;;;;;;;;;;18.40;36.60;;;;;;1576594;74;750;-68
2023/01/21 09:29:30;;;;;;;;;;;18.40;36.60;;;;;;1583971;74;1445;-65
2023/01/21 09:31:32;;;;;;;;;;;18.50;36.80;;;;;;1581841;74;719;-65
2023/01/21 09:33:34;;;;;;;;;;;18.50;36.90;;;;;;1575429;74;1082;-66
2023/01/21 09:35:37;;;;;;;;;;;18.60;37.10;;;;;;1564444;74;699;-65
2023/01/21 09:37:38;;;;;;;;;;;18.60;37.20;;;;;;1581211;74;816;-66
2023/01/21 09:39:40;;;;;;;;;;;18.60;37.40;;;;;;1582553;74;792;-65
2023/01/21 09:41:50;;;;;;;;;;;18.60;37.60;;;;;;1573154;74;1965;-66
2023/01/21 09:43:59;;;;;;;;;;;18.60;37.70;;;;;;1570733;74;1722;-68
2023/01/21 09:46:01;;;;;;;;;;;18.70;37.80;;;;;;1566956;74;773;-66
2023/01/21 09:48:03;;;;;;;;;;;18.70;38.10;;;;;;1580606;74;719;-66
2023/01/21 09:50:07;;;;;;;;;;;18.80;38.10;;;;;;1572341;74;735;-67
2023/01/21 09:52:23;;;;;;;;;;;18.80;38.40;;;;;;1582893;74;713;-66
2023/01/21 09:54:26;;;;;;;;;;;18.80;38.40;;;;;;1575606;74;1054;-67
2023/01/21 09:56:29;;;;;;;;;;;18.80;38.50;;;;;;1563500;74;730;-66
2023/01/21 09:58:36;;;;;;;;;;;18.80;38.60;;;;;;1568779;74;1530;-66
2023/01/21 10:00:42;;;;;;;;;;;18.90;38.80;;;;;;1572915;74;1946;-66
2023/01/21 10:02:45;;;;;;;;;;;18.80;38.90;;;;;;1575419;74;2019;-66
2023/01/21 10:04:48;;;;;;;;;;;18.80;39.00;;;;;;1571185;74;694;-67
2023/01/21 10:06:58;;;;;;;;;;;18.90;39.20;;;;;;1570370;74;747;-66
2023/01/21 10:09:16;;;;;;;;;;;18.90;39.30;;;;;;1573934;74;1017;-68
2023/01/21 10:11:36;;;;;;;;;;;18.90;39.40;;;;;;1576353;74;1845;-66
2023/01/21 10:13:46;;;;;;;;;;;18.80;39.40;;;;;;1570908;74;1246;-68
2023/01/21 10:15:55;;;;;;;;;;;18.90;39.70;;;;;;1574979;74;746;-66
2023/01/21 10:18:01;;;;;;;;;;;18.80;39.70;;;;;;1580047;74;923;-69
2023/01/21 10:20:07;;;;;;;;;;;18.90;45.20;;;;;;1575827;74;1930;-70
2023/01/21 10:22:11;;;;;;;;;;;18.80;46.80;;;;;;1581305;74;1004;-66
2023/01/21 10:24:14;;;;;;;;;;;18.90;47.00;;;;;;1581747;74;2092;-69
2023/01/21 10:26:16;;;;;;;;;;;18.90;46.20;;;;;;1569921;74;1720;-65
2023/01/21 10:28:25;;;;;;;;;;;19.00;46.80;;;;;;1574488;74;717;-66
2023/01/21 10:30:28;;;;;;;;;;;19.00;47.10;;;;;;1573443;74;801;-66
2023/01/21 10:32:30;;;;;;;;;;;19.00;47.50;;;;;;1581402;74;703;-66
2023/01/21 10:34:33;;;;;;;;;;;19.00;48.30;;;;;;1571341;74;1094;-65
2023/01/21 10:36:55;;;;;;;;;;;19.10;46.10;;;;;;1574818;74;797;-65
2023/01/21 10:38:58;;;;;;;;;;;19.20;45.10;;;;;;1582065;74;1588;-66
2023/01/21 10:41:19;;;;;;;;;;;19.30;44.50;;;;;;1567019;74;1955;-67
2023/01/21 10:43:34;;;;;;;;;;;19.40;44.10;;;;;;1579213;74;1141;-66
2023/01/21 10:45:41;;;;;;;;;;;19.40;43.80;;;;;;1575161;74;802;-67
2023/01/21 10:47:47;;;;;;;;;;;19.40;43.60;;;;;;1571739;74;755;-66
2023/01/21 10:49:53;;;;;;;;;;;19.40;43.40;;;;;;1568382;74;721;-67
2023/01/21 10:52:00;;;;;;;;;;;19.50;43.50;;;;;;1582474;74;766;-67
2023/01/21 10:54:06;;;;;;;;;;;19.50;43.50;;;;;;1568471;74;1363;-66
2023/01/21 10:56:28;;;;;;;;;;;19.50;43.50;;;;;;1560518;74;1582;-65
2023/01/21 10:58:46;;;;;;;;;;;19.50;43.40;;;;;;1578839;74;791;-70
2023/01/21 11:00:48;;;;;;;;;;;19.50;43.40;;;;;;1575142;74;1921;-68
2023/01/21 11:02:51;;;;;;;;;;;19.50;43.50;;;;;;1559698;74;1139;-67
2023/01/21 11:04:53;;;;;;;;;;;19.50;43.40;;;;;;1565716;74;777;-66
2023/01/21 11:07:00;;;;;;;;;;;19.60;43.40;;;;;;1579329;74;825;-67
2023/01/21 11:09:02;;;;;;;;;;;19.60;43.40;;;;;;1574589;74;1610;-67
2023/01/21 11:11:05;;;;;;;;;;;19.60;43.40;;;;;;1560230;74;688;-67
2023/01/21 11:13:08;;;;;;;;;;;19.50;43.40;;;;;;1570283;74;1209;-66
2023/01/21 11:15:13;;;;;;;;;;;19.60;43.30;;;;;;1574779;74;771;-67
2023/01/21 11:17:17;;;;;;;;;;;19.60;43.30;;;;;;1577612;74;773;-68
2023/01/21 11:19:23;;;;;;;;;;;19.50;43.30;;;;;;1575668;74;1497;-70
2023/01/21 11:21:25;;;;;;;;;;;19.60;43.30;;;;;;1561913;74;1950;-67
2023/01/21 11:23:29;;;;;;;;;;;19.60;43.30;;;;;;1582661;74;1731;-67
2023/01/21 11:25:32;;;;;;;;;;;19.60;43.30;;;;;;1580086;74;803;-67
2023/01/21 11:27:36;;;;;;;;;;;19.60;43.40;;;;;;1582236;74;1952;-67
2023/01/21 11:29:39;;;;;;;;;;;19.60;43.40;;;;;;1569767;74;795;-66
2023/01/21 11:31:41;;;;;;;;;;;19.60;43.50;;;;;;1572280;74;816;-67
2023/01/21 11:33:43;;;;;;;;;;;19.60;43.50;;;;;;1567994;74;1137;-67
2023/01/21 11:35:45;;;;;;;;;;;19.50;43.50;;;;;;1577457;74;1308;-68
2023/01/21 11:37:47;;;;;;;;;;;19.60;43.50;;;;;;1570645;74;791;-68
2023/01/21 11:39:53;;;;;;;;;;;19.60;43.50;;;;;;1570089;74;781;-67
2023/01/21 11:41:58;;;;;;;;;;;19.60;43.50;;;;;;1556754;74;1942;-67
2023/01/21 11:44:19;;;;;;;;;;;19.60;43.60;;;;;;1581701;74;1058;-68
2023/01/21 11:46:28;;;;;;;;;;;19.60;43.60;;;;;;1572476;74;729;-67
2023/01/21 11:48:30;;;;;;;;;;;19.60;43.60;;;;;;1576618;74;707;-68
2023/01/21 11:50:33;;;;;;;;;;;19.60;43.70;;;;;;1576906;74;1511;-68
2023/01/21 11:52:35;;;;;;;;;;;19.60;43.70;;;;;;1579853;74;1133;-66
2023/01/21 11:54:42;;;;;;;;;;;19.60;43.70;;;;;;1578164;74;691;-68
2023/01/21 11:56:44;;;;;;;;;;;19.50;43.70;;;;;;1581527;74;1282;-67
2023/01/21 11:58:47;;;;;;;;;;;19.60;43.80;;;;;;1573858;74;673;-68
2023/01/21 12:00:50;;;;;;;;;;;19.60;43.90;;;;;;1580696;74;1968;-68
2023/01/21 12:02:53;;;;;;;;;;;19.60;43.90;;;;;;1582342;74;1141;-67
2023/01/21 12:04:56;;;;;;;;;;;19.50;43.90;;;;;;1578531;74;1547;-69
2023/01/21 12:06:59;;;;;;;;;;;19.50;43.90;;;;;;1574333;74;624;-70
2023/01/21 12:09:02;;;;;;;;;;;19.50;43.90;;;;;;1567208;74;731;-68
2023/01/21 12:11:04;;;;;;;;;;;19.60;43.90;;;;;;1571465;74;675;-69
2023/01/21 12:13:14;;;;;;;;;;;19.50;43.90;;;;;;1568952;73;3094;31
2023/01/21 12:15:20;;;;;;;;;;;19.50;43.90;;;;;;1595215;73;678;-70
2023/01/21 12:17:30;;;;;;;;;;;19.50;44.00;;;;;;1575164;74;934;-71
2023/01/21 12:19:39;;;;;;;;;;;19.60;44.00;;;;;;1603582;73;1931;-72
2023/01/21 12:22:01;;;;;;;;;;;19.50;44.00;;;;;;1601778;73;1946;-70
2023/01/21 12:24:04;;;;;;;;;;;19.50;44.10;;;;;;1518626;77;1215;-71